createdAt,value
2023-04-06T00:02:15.166Z,11.23
2023-04-06T00:04:46.791Z,8.25
2023-04-06T00:07:18.406Z,7.00
2023-04-06T00:09:50.062Z,11.13
2023-04-06T00:12:22.163Z,8.60
2023-04-06T00:14:53.782Z,8.30
2023-04-06T00:17:25.716Z,8.00
2023-04-06T00:19:57.361Z,6.90
2023-04-06T00:22:29.182Z,5.93
2023-04-06T00:25:01.092Z,7.78
2023-04-06T00:27:32.667Z,7.40
2023-04-06T00:30:08.406Z,6.50
2023-04-06T00:32:40.077Z,7.53
2023-04-06T00:35:12.628Z,7.53
2023-04-06T00:37:47.406Z,7.75
2023-04-06T00:40:19.254Z,6.68
2023-04-06T00:42:51.112Z,8.45
2023-04-06T00:45:22.751Z,9.65
2023-04-06T00:47:54.571Z,4.85
2023-04-06T00:50:26.367Z,6.90
2023-04-06T00:52:57.968Z,6.07
2023-04-06T00:55:30.151Z,6.35
2023-04-06T00:58:02.201Z,6.35
2023-04-06T01:00:34.230Z,9.13
2023-04-06T01:03:07.839Z,5.30
2023-04-06T01:05:41.621Z,5.70
2023-04-06T01:08:13.394Z,7.47
2023-04-06T01:10:45.193Z,6.40
2023-04-06T01:13:18.159Z,4.78
2023-04-06T01:15:50.365Z,4.43
2023-04-06T01:18:30.128Z,5.18
2023-04-06T01:21:02.436Z,5.82
2023-04-06T01:23:34.067Z,6.97
2023-04-06T01:26:05.678Z,3.97
2023-04-06T01:28:38.394Z,9.80
2023-04-06T01:31:10.852Z,6.20
2023-04-06T01:33:42.496Z,9.32
2023-04-06T01:36:14.127Z,3.65
2023-04-06T01:38:45.752Z,5.10
2023-04-06T01:41:17.408Z,4.53
2023-04-06T01:43:50.839Z,4.80
2023-04-06T01:46:22.715Z,4.85
2023-04-06T01:48:54.437Z,4.25
2023-04-06T01:51:26.808Z,5.30
2023-04-06T01:56:29.917Z,5.55
2023-04-06T01:59:01.646Z,5.20
2023-04-06T02:01:33.230Z,7.80
2023-04-06T02:04:04.864Z,9.73
2023-04-06T02:06:36.551Z,6.95
2023-04-06T02:09:08.335Z,6.43
2023-04-06T02:11:40.394Z,6.80
2023-04-06T02:14:14.122Z,5.15
2023-04-06T02:16:45.736Z,5.80
2023-04-06T02:19:17.353Z,4.00
2023-04-06T02:24:20.499Z,4.85
2023-04-06T02:26:52.262Z,6.15
2023-04-06T02:29:23.827Z,4.32
2023-04-06T02:31:55.823Z,6.43
2023-04-06T02:34:27.443Z,3.55
2023-04-06T02:36:59.116Z,3.77
2023-04-06T02:39:30.910Z,5.53
2023-04-06T02:42:02.568Z,2.92
2023-04-06T02:44:34.156Z,2.97
2023-04-06T02:47:06.231Z,4.30
2023-04-06T02:49:38.184Z,4.32
2023-04-06T02:52:09.761Z,4.47
2023-04-06T02:54:41.266Z,11.73
2023-04-06T02:59:44.487Z,6.15
2023-04-06T03:02:16.392Z,6.68
2023-04-06T03:04:48.263Z,6.55
2023-04-06T03:07:19.840Z,6.63
2023-04-06T03:09:51.868Z,7.63
2023-04-06T03:12:23.487Z,3.17
2023-04-06T03:14:57.747Z,6.20
2023-04-06T03:17:29.291Z,3.30
2023-04-06T03:20:01.145Z,3.13
2023-04-06T03:22:32.714Z,4.47
2023-04-06T03:25:05.056Z,4.57
2023-04-06T03:27:36.695Z,8.70
2023-04-06T03:30:08.765Z,5.53
2023-04-06T03:32:40.597Z,12.02
2023-04-06T03:35:14.455Z,8.18
2023-04-06T03:42:49.260Z,7.53
2023-04-06T03:45:20.909Z,9.33
2023-04-06T03:47:52.483Z,6.28
2023-04-06T03:50:24.239Z,6.53
2023-04-06T03:52:56.364Z,6.05
2023-04-06T03:55:27.880Z,5.57
2023-04-06T03:57:59.496Z,5.73
2023-04-06T04:00:31.006Z,3.05
2023-04-06T04:03:03.485Z,7.57
2023-04-06T04:05:35.350Z,4.97
2023-04-06T04:08:07.022Z,4.05
2023-04-06T04:10:38.574Z,6.90
2023-04-06T04:13:10.307Z,4.80
2023-04-06T04:15:41.792Z,7.70
2023-04-06T04:18:13.643Z,8.37
2023-04-06T04:20:45.284Z,10.05
2023-04-06T04:23:16.846Z,9.18
2023-04-06T04:25:48.437Z,5.32
2023-04-06T04:28:19.993Z,7.43
2023-04-06T04:30:51.478Z,7.13
2023-04-06T04:33:23.939Z,11.55
2023-04-06T04:38:27.074Z,9.63
2023-04-06T04:40:58.604Z,7.80
2023-04-06T04:43:32.688Z,6.60
2023-04-06T04:46:06.835Z,7.88
2023-04-06T04:48:39.839Z,7.60
2023-04-06T04:51:12.617Z,10.77
2023-04-06T04:56:15.794Z,5.70
2023-04-06T05:01:18.869Z,7.65
2023-04-06T05:03:52.158Z,4.93
2023-04-06T05:06:23.807Z,5.13
2023-04-06T05:08:55.574Z,8.07
2023-04-06T05:11:27.405Z,5.82
2023-04-06T05:14:01.670Z,7.57
2023-04-06T05:16:35.002Z,5.28
2023-04-06T05:19:06.862Z,8.10
2023-04-06T05:21:38.877Z,6.85
2023-04-06T05:24:10.695Z,5.63
2023-04-06T05:26:42.715Z,10.25
2023-04-06T05:29:14.364Z,10.40
2023-04-06T05:31:46.168Z,5.47
2023-04-06T05:34:17.967Z,10.75
2023-04-06T05:36:49.531Z,7.75
2023-04-06T05:39:21.277Z,9.13
2023-04-06T05:41:52.868Z,6.00
2023-04-06T05:44:24.420Z,8.25
2023-04-06T05:46:56.208Z,7.13
2023-04-06T05:49:27.951Z,15.13
2023-04-06T05:51:59.483Z,5.85
2023-04-06T05:54:31.567Z,6.33
2023-04-06T05:57:04.280Z,4.95
2023-04-06T05:59:36.327Z,6.82
2023-04-06T06:02:07.936Z,6.65
2023-04-06T06:04:39.566Z,9.85
2023-04-06T06:07:11.225Z,11.10
2023-04-06T06:09:42.830Z,11.30
2023-04-06T06:12:14.748Z,15.80
2023-04-06T06:14:46.598Z,6.78
2023-04-06T06:17:18.190Z,8.07
2023-04-06T06:19:49.837Z,15.80
2023-04-06T06:22:21.484Z,10.23
2023-04-06T06:24:53.063Z,8.85
2023-04-06T06:27:24.686Z,7.45
2023-04-06T06:29:56.694Z,5.82
2023-04-06T06:32:28.377Z,11.82
2023-04-06T06:35:00.197Z,5.05
2023-04-06T06:37:31.826Z,3.65
2023-04-06T06:40:03.873Z,4.97
2023-04-06T06:42:35.746Z,5.28
2023-04-06T06:45:08.465Z,6.97
2023-04-06T06:47:40.137Z,9.70
2023-04-06T06:50:11.923Z,9.00
2023-04-06T06:52:44.037Z,11.02
2023-04-06T06:55:16.416Z,9.05
2023-04-06T06:57:48.069Z,6.97
2023-04-06T07:00:21.766Z,9.02
2023-04-06T07:02:53.402Z,7.47
2023-04-06T07:05:28.737Z,6.38
2023-04-06T07:08:00.920Z,9.75
2023-04-06T07:10:32.744Z,7.68
2023-04-06T07:13:04.295Z,9.10
2023-04-06T07:15:35.985Z,6.70
2023-04-06T07:18:07.663Z,12.52
2023-04-06T07:20:39.517Z,5.85
2023-04-06T07:23:11.165Z,7.60
2023-04-06T07:25:43.112Z,7.28
2023-04-06T07:28:14.771Z,6.15
2023-04-06T07:30:46.375Z,5.90
2023-04-06T07:33:18.106Z,6.53
2023-04-06T07:35:49.784Z,12.13
2023-04-06T07:38:21.363Z,11.95
2023-04-06T07:40:53.041Z,16.03
2023-04-06T07:43:24.858Z,11.30
2023-04-06T07:45:58.239Z,7.13
2023-04-06T07:48:29.919Z,10.02
2023-04-06T07:51:05.987Z,17.08
2023-04-06T07:53:37.527Z,13.77
2023-04-06T07:56:09.788Z,7.90
2023-04-06T07:58:41.336Z,6.82
2023-04-06T08:01:12.984Z,6.77
2023-04-06T08:03:44.889Z,7.95
2023-04-06T08:06:17.063Z,5.68
2023-04-06T08:08:48.628Z,6.72
2023-04-06T08:11:22.936Z,8.33
2023-04-06T08:13:57.544Z,6.72
2023-04-06T08:16:29.079Z,10.52
2023-04-06T08:19:00.662Z,6.97
2023-04-06T08:21:32.255Z,10.87
2023-04-06T08:24:04.542Z,7.63
2023-04-06T08:26:36.277Z,14.50
2023-04-06T08:29:10.660Z,8.85
2023-04-06T08:31:42.291Z,13.65
2023-04-06T08:34:14.536Z,7.82
2023-04-06T08:36:48.194Z,6.78
2023-04-06T08:39:26.138Z,12.13
2023-04-06T08:41:58.976Z,8.52
2023-04-06T08:44:32.951Z,9.52
2023-04-06T08:47:06.293Z,8.00
2023-04-06T08:49:39.889Z,8.82
2023-04-06T08:54:43.511Z,7.03
2023-04-06T08:57:16.394Z,9.33
2023-04-06T08:59:48.713Z,7.65
2023-04-06T09:02:21.563Z,6.90
2023-04-06T09:04:54.658Z,8.48
2023-04-06T09:07:26.418Z,9.02
2023-04-06T09:09:58.058Z,10.73
2023-04-06T09:12:31.393Z,9.80
2023-04-06T09:15:03.389Z,5.20
2023-04-06T09:17:35.113Z,7.05
2023-04-06T09:20:07.219Z,10.02
2023-04-06T09:22:43.414Z,8.90
2023-04-06T09:25:21.785Z,8.30
2023-04-06T09:28:05.502Z,10.75
2023-04-06T09:30:37.306Z,7.00
2023-04-06T09:33:09.000Z,9.48
2023-04-06T09:35:40.992Z,9.00
2023-04-06T09:38:13.318Z,7.38
2023-04-06T09:41:00.794Z,7.03
2023-04-06T09:43:32.715Z,7.68
2023-04-06T09:46:05.658Z,10.95
2023-04-06T09:48:38.171Z,9.02
2023-04-06T09:51:15.968Z,9.85
2023-04-06T09:53:53.153Z,7.28
2023-04-06T09:56:28.333Z,11.48
2023-04-06T09:59:06.532Z,8.35
2023-04-06T10:01:40.236Z,9.95
2023-04-06T10:04:47.184Z,9.90
2023-04-06T10:07:19.345Z,9.00
2023-04-06T10:09:52.246Z,8.32
2023-04-06T10:12:23.899Z,15.15
2023-04-06T10:14:56.993Z,20.88
2023-04-06T10:17:28.580Z,8.75
2023-04-06T10:20:17.459Z,9.18
2023-04-06T10:22:54.967Z,7.35
2023-04-06T10:25:35.452Z,10.10
2023-04-06T10:28:08.364Z,11.13
2023-04-06T10:30:44.582Z,7.72
2023-04-06T10:33:20.827Z,9.18
2023-04-06T10:35:52.791Z,7.95
2023-04-06T10:38:41.870Z,10.00
2023-04-06T10:41:14.029Z,12.45
2023-04-06T10:43:47.502Z,8.00
2023-04-06T10:46:27.068Z,7.68
2023-04-06T10:48:59.357Z,11.20
2023-04-06T10:51:32.049Z,10.90
2023-04-06T10:54:06.116Z,8.90
2023-04-06T10:56:40.081Z,6.88
2023-04-06T10:59:12.093Z,9.60
2023-04-06T11:01:46.571Z,9.50
2023-04-06T11:04:19.514Z,7.85
2023-04-06T11:06:52.101Z,6.55
2023-04-06T11:09:27.401Z,5.82
2023-04-06T11:11:59.157Z,5.88
2023-04-06T11:14:30.833Z,6.55
2023-04-06T11:17:02.735Z,7.55
2023-04-06T11:19:35.608Z,7.47
2023-04-06T11:22:10.398Z,7.85
2023-04-06T11:24:41.934Z,7.05
2023-04-06T11:27:16.056Z,11.10
2023-04-06T11:29:48.086Z,5.13
2023-04-06T11:32:24.588Z,8.00
2023-04-06T11:34:58.929Z,10.57
2023-04-06T11:37:30.514Z,6.85
2023-04-06T11:40:02.115Z,8.45
2023-04-06T11:42:35.521Z,11.70
2023-04-06T11:45:08.476Z,5.05
2023-04-06T11:47:40.530Z,7.78
2023-04-06T11:50:14.592Z,4.55
2023-04-06T11:52:46.226Z,6.30
2023-04-06T11:55:19.928Z,8.15
2023-04-06T11:57:52.555Z,5.53
2023-04-06T12:00:25.132Z,9.02
2023-04-06T12:02:56.850Z,6.75
2023-04-06T12:05:28.914Z,7.32
2023-04-06T12:08:02.608Z,8.10
2023-04-06T12:10:35.323Z,6.10
2023-04-06T12:13:06.944Z,6.47
2023-04-06T12:15:38.492Z,7.40
2023-04-06T12:18:10.285Z,3.85
2023-04-06T12:20:41.817Z,4.95
2023-04-06T12:23:13.420Z,5.18
2023-04-06T12:25:44.962Z,7.60
2023-04-06T12:28:16.609Z,4.43
2023-04-06T12:30:48.165Z,5.72
2023-04-06T12:33:19.795Z,5.68
2023-04-06T12:35:51.571Z,8.05
2023-04-06T12:38:23.216Z,7.03
2023-04-06T12:40:54.771Z,6.25
2023-04-06T12:43:26.595Z,6.30
2023-04-06T12:45:58.292Z,7.53
2023-04-06T12:48:29.844Z,7.53
2023-04-06T12:51:03.458Z,4.63
2023-04-06T12:53:35.993Z,7.32
2023-04-06T12:56:16.709Z,5.35
2023-04-06T12:58:48.323Z,6.05
2023-04-06T13:01:20.054Z,5.43
2023-04-06T13:03:51.682Z,5.20
2023-04-06T13:06:23.265Z,6.40
2023-04-06T13:08:54.977Z,6.30
2023-04-06T13:11:28.815Z,5.03
2023-04-06T13:14:01.064Z,5.68
2023-04-06T13:16:33.258Z,5.65
2023-04-06T13:21:36.334Z,4.82
2023-04-06T13:24:07.967Z,6.13
2023-04-06T13:26:39.500Z,6.43
2023-04-06T13:29:11.047Z,6.88
2023-04-06T13:31:42.615Z,6.05
2023-04-06T13:34:14.273Z,4.50
2023-04-06T13:36:45.898Z,5.15
2023-04-06T13:39:17.439Z,6.38
2023-04-06T13:41:49.004Z,5.18
2023-04-06T13:44:20.881Z,6.07
2023-04-06T13:46:52.457Z,5.25
2023-04-06T13:49:24.124Z,6.82
2023-04-06T13:51:55.727Z,5.63
2023-04-06T13:54:27.998Z,5.10
2023-04-06T13:59:37.321Z,5.25
2023-04-06T14:02:10.590Z,6.57
2023-04-06T14:04:42.208Z,6.00
2023-04-06T14:07:13.815Z,8.48
2023-04-06T14:09:45.275Z,5.47
2023-04-06T14:12:16.854Z,5.50
2023-04-06T14:24:54.479Z,4.53
2023-04-06T14:27:26.168Z,4.47
2023-04-06T14:29:57.713Z,4.43
2023-04-06T14:32:29.187Z,7.95
2023-04-06T14:35:00.815Z,3.47
2023-04-06T14:37:32.340Z,3.50
2023-04-06T14:40:04.584Z,4.65
2023-04-06T14:42:37.558Z,4.28
2023-04-06T14:45:09.403Z,3.38
2023-04-06T14:47:40.914Z,5.32
2023-04-06T14:50:12.513Z,6.53
2023-04-06T14:52:44.020Z,3.13
2023-04-06T14:55:16.508Z,3.38
2023-04-06T14:57:48.031Z,2.35
2023-04-06T15:00:20.105Z,6.70
2023-04-06T15:02:51.777Z,4.20
2023-04-06T15:05:23.424Z,3.53
2023-04-06T15:07:54.907Z,3.17
2023-04-06T15:10:26.570Z,3.28
2023-04-06T15:12:58.033Z,4.55
2023-04-06T15:15:29.723Z,3.05
2023-04-06T15:18:03.449Z,2.58
2023-04-06T15:20:35.691Z,4.45
2023-04-06T15:23:07.189Z,2.90
2023-04-06T15:25:42.206Z,3.35
2023-04-06T15:28:13.933Z,5.05
2023-04-06T15:30:45.455Z,3.95
2023-04-06T15:33:17.062Z,8.05
2023-04-06T15:35:49.154Z,4.68
2023-04-06T15:40:53.365Z,8.40
2023-04-06T15:43:24.888Z,7.40
2023-04-06T15:45:57.249Z,6.50
2023-04-06T15:48:31.858Z,4.43
2023-04-06T15:51:03.535Z,3.25
2023-04-06T15:53:36.300Z,2.75
2023-04-06T15:56:09.682Z,4.40
2023-04-06T15:58:41.625Z,4.80
2023-04-06T16:01:17.895Z,5.20
2023-04-06T16:03:49.645Z,4.40
2023-04-06T16:06:21.483Z,7.63
2023-04-06T16:08:53.045Z,4.93
2023-04-06T16:11:24.564Z,5.57
2023-04-06T16:13:56.217Z,4.03
2023-04-06T16:16:27.986Z,3.72
2023-04-06T16:18:59.521Z,3.38
2023-04-06T16:21:31.546Z,3.25
2023-04-06T16:26:35.628Z,3.13
2023-04-06T16:29:07.334Z,3.88
2023-04-06T16:31:38.946Z,5.80
2023-04-06T16:34:10.668Z,5.80
2023-04-06T16:36:42.675Z,5.00
2023-04-06T16:39:14.349Z,5.95
2023-04-06T16:41:46.262Z,3.78
2023-04-06T16:44:17.852Z,5.38
2023-04-06T16:46:49.725Z,7.97
2023-04-06T16:49:21.291Z,3.15
2023-04-06T16:51:52.841Z,9.38
2023-04-06T16:54:24.351Z,8.30
2023-04-06T16:56:56.629Z,5.15
2023-04-06T17:02:00.034Z,5.05
2023-04-06T17:04:31.849Z,5.80
2023-04-06T17:07:03.730Z,4.93
2023-04-06T17:09:35.326Z,3.35
2023-04-06T17:12:07.079Z,4.53
2023-04-06T17:14:38.602Z,5.53
2023-04-06T17:17:10.244Z,7.28
2023-04-06T17:19:41.826Z,6.03
2023-04-06T17:22:13.410Z,4.60
2023-04-06T17:27:16.722Z,8.68
2023-04-06T17:32:19.773Z,4.65
2023-04-06T17:34:51.286Z,7.05
2023-04-06T17:37:22.748Z,6.83
2023-04-06T17:39:55.005Z,5.30
2023-04-06T17:42:27.024Z,6.53
2023-04-06T17:47:34.140Z,8.63
2023-04-06T17:50:06.312Z,6.20
2023-04-06T17:52:38.079Z,8.38
2023-04-06T17:57:43.317Z,4.97
2023-04-06T18:00:19.937Z,6.50
2023-04-06T18:02:54.645Z,6.72
2023-04-06T18:05:28.988Z,9.63
2023-04-06T18:08:00.605Z,9.40
2023-04-06T18:10:32.183Z,7.05
2023-04-06T18:13:03.677Z,18.92
2023-04-06T18:15:38.276Z,17.08
2023-04-06T18:18:09.895Z,11.20
2023-04-06T18:20:41.834Z,8.55
2023-04-06T18:23:14.824Z,7.25
2023-04-06T18:25:46.438Z,6.35
2023-04-06T18:28:18.001Z,6.30
2023-04-06T18:30:49.534Z,7.53
2023-04-06T18:33:20.980Z,8.97
2023-04-06T18:35:52.537Z,12.33
2023-04-06T18:38:24.199Z,11.07
2023-04-06T18:40:55.815Z,14.10
2023-04-06T18:43:28.441Z,20.02
2023-04-06T18:46:00.995Z,17.00
2023-04-06T18:48:32.651Z,24.20
2023-04-06T18:51:04.296Z,15.57
2023-04-06T18:53:37.311Z,10.95
2023-04-06T18:56:18.668Z,17.05
2023-04-06T18:58:50.426Z,8.02
2023-04-06T19:01:28.434Z,6.55
2023-04-06T19:04:00.783Z,10.15
2023-04-06T19:06:33.666Z,14.18
2023-04-06T19:11:36.908Z,11.32
2023-04-06T19:14:08.392Z,8.38
2023-04-06T19:16:43.654Z,14.93
2023-04-06T19:19:15.241Z,63.22
2023-04-06T19:21:46.898Z,81.43
2023-04-06T19:24:18.495Z,57.72
2023-04-06T19:26:50.040Z,56.33
2023-04-06T19:29:21.558Z,49.97
2023-04-06T19:31:53.328Z,46.37
2023-04-06T19:34:25.224Z,52.40
2023-04-06T19:36:57.004Z,54.88
2023-04-06T19:39:28.507Z,53.83
2023-04-06T19:42:00.050Z,72.33
2023-04-06T19:44:31.966Z,86.35
2023-04-06T19:47:03.519Z,107.72
2023-04-06T19:49:35.001Z,97.80
2023-04-06T19:52:07.825Z,56.43
2023-04-06T19:54:40.230Z,42.97
2023-04-06T19:59:43.245Z,71.90
2023-04-06T20:02:14.922Z,45.92
2023-04-06T20:04:46.878Z,40.38
2023-04-06T20:07:18.610Z,30.73
2023-04-06T20:09:50.103Z,30.67
2023-04-06T20:12:21.629Z,19.60
2023-04-06T20:14:53.139Z,14.33
2023-04-06T20:17:24.933Z,14.60
2023-04-06T20:19:56.489Z,22.80
2023-04-06T20:22:28.100Z,27.70
2023-04-06T20:24:59.685Z,20.83
2023-04-06T20:27:31.278Z,19.80
2023-04-06T20:30:03.023Z,20.52
2023-04-06T20:32:34.682Z,16.30
2023-04-06T20:35:06.442Z,19.23
2023-04-06T20:37:38.847Z,14.05
2023-04-06T20:40:12.061Z,14.35
2023-04-06T20:42:43.998Z,12.57
2023-04-06T20:45:15.634Z,15.80
2023-04-06T20:47:47.276Z,13.55
2023-04-06T20:50:20.566Z,15.32
2023-04-06T20:52:52.091Z,13.30
2023-04-06T20:55:23.529Z,12.33
2023-04-06T20:57:55.116Z,14.73
2023-04-06T21:00:26.629Z,13.05
2023-04-06T21:02:58.255Z,12.23
2023-04-06T21:05:30.783Z,12.20
2023-04-06T21:10:33.659Z,11.43
2023-04-06T21:13:05.360Z,7.03
2023-04-06T21:15:36.869Z,13.10
2023-04-06T21:18:08.593Z,20.83
2023-04-06T21:20:43.187Z,16.13
2023-04-06T21:23:14.731Z,8.23
2023-04-06T21:25:46.481Z,6.87
2023-04-06T21:28:18.840Z,10.57
2023-04-06T21:33:22.024Z,7.70
2023-04-06T21:35:53.540Z,7.32
2023-04-06T21:38:25.150Z,7.93
2023-04-06T21:40:56.811Z,11.07
2023-04-06T21:43:28.634Z,6.25
2023-04-06T21:46:00.163Z,6.75
2023-04-06T21:48:31.968Z,8.73
2023-04-06T21:51:03.596Z,6.40
2023-04-06T21:53:35.239Z,6.93
2023-04-06T21:56:06.794Z,6.43
2023-04-06T21:58:38.696Z,6.30
2023-04-06T22:01:11.268Z,5.72
2023-04-06T22:03:43.226Z,5.80
2023-04-06T22:06:14.966Z,9.52
2023-04-06T22:08:48.154Z,6.90
2023-04-06T22:11:19.705Z,7.32
2023-04-06T22:13:51.239Z,7.30
2023-04-06T22:16:23.070Z,6.80
2023-04-06T22:18:54.597Z,9.13
2023-04-06T22:21:26.591Z,6.60
2023-04-06T22:23:58.141Z,10.88
2023-04-06T22:26:29.764Z,15.53
2023-04-06T22:29:01.231Z,13.30
2023-04-06T22:31:32.727Z,17.13
2023-04-06T22:34:04.291Z,8.80
2023-04-06T22:36:35.921Z,9.57
2023-04-06T22:39:07.419Z,6.90
2023-04-06T22:41:38.926Z,5.17
2023-04-06T22:44:10.446Z,6.00
2023-04-06T22:46:42.000Z,5.50
2023-04-06T22:49:13.503Z,13.15
2023-04-06T22:51:45.045Z,9.00
2023-04-06T22:54:16.603Z,6.87
2023-04-06T22:56:48.156Z,7.43
2023-04-06T22:59:19.584Z,12.17
2023-04-06T23:01:51.180Z,6.72
2023-04-06T23:04:22.834Z,10.02
2023-04-06T23:06:54.416Z,6.60
2023-04-06T23:09:26.038Z,7.27
2023-04-06T23:11:57.573Z,6.65
2023-04-06T23:14:29.026Z,6.87
2023-04-06T23:17:01.063Z,7.90
2023-04-06T23:19:32.636Z,7.13
2023-04-06T23:22:04.155Z,6.17
2023-04-06T23:24:35.783Z,6.20
2023-04-06T23:27:07.341Z,7.43
2023-04-06T23:29:38.803Z,7.03
2023-04-06T23:32:10.415Z,5.55
2023-04-06T23:34:42.042Z,4.65
2023-04-06T23:37:13.648Z,5.82
2023-04-06T23:39:45.206Z,5.05
2023-04-06T23:42:16.796Z,5.20
2023-04-06T23:44:48.223Z,4.40
2023-04-06T23:47:19.800Z,6.00
2023-04-06T23:49:51.451Z,5.45
2023-04-06T23:52:23.025Z,5.60
2023-04-06T23:54:54.486Z,4.90
2023-04-06T23:57:26.090Z,8.73
